sensor_id;sensor_type;location;lat;lon;timestamp;pressure;altitude;pressure_sealevel;temperature;humidity
53916;BME280;39827;49.652;18.770;2023-02-23T00:01:55;96421.03;;;0.93;100.00
53916;BME280;39827;49.652;18.770;2023-02-23T00:04:22;96414.38;;;0.83;100.00
53916;BME280;39827;49.652;18.770;2023-02-23T00:06:47;96411.78;;;0.83;100.00
53916;BME280;39827;49.652;18.770;2023-02-23T00:09:16;96414.56;;;0.75;99.44
53916;BME280;39827;49.652;18.770;2023-02-23T00:11:49;96411.97;;;0.82;99.28
53916;BME280;39827;49.652;18.770;2023-02-23T00:14:15;96419.53;;;0.70;99.37
53916;BME280;39827;49.652;18.770;2023-02-23T00:16:40;96422.94;;;0.63;99.63
53916;BME280;39827;49.652;18.770;2023-02-23T00:19:09;96427.53;;;0.55;99.44
53916;BME280;39827;49.652;18.770;2023-02-23T00:21:39;96412.28;;;0.58;98.93
53916;BME280;39827;49.652;18.770;2023-02-23T00:24:10;96411.28;;;0.59;99.22
53916;BME280;39827;49.652;18.770;2023-02-23T00:26:37;96414.91;;;0.65;99.20
53916;BME280;39827;49.652;18.770;2023-02-23T00:29:07;96420.31;;;0.57;99.20
53916;BME280;39827;49.652;18.770;2023-02-23T00:31:33;96411.66;;;0.56;99.97
53916;BME280;39827;49.652;18.770;2023-02-23T00:34:00;96414.13;;;0.71;100.00
53916;BME280;39827;49.652;18.770;2023-02-23T00:36:29;96416.50;;;0.59;99.78
53916;BME280;39827;49.652;18.770;2023-02-23T00:39:00;96410.88;;;0.49;100.00
53916;BME280;39827;49.652;18.770;2023-02-23T00:41:26;96412.88;;;0.60;100.00
53916;BME280;39827;49.652;18.770;2023-02-23T00:43:56;96408.44;;;0.47;100.00
53916;BME280;39827;49.652;18.770;2023-02-23T00:46:24;96412.06;;;0.46;100.00
53916;BME280;39827;49.652;18.770;2023-02-23T00:48:51;96404.44;;;0.45;100.00
53916;BME280;39827;49.652;18.770;2023-02-23T00:51:19;96410.53;;;0.72;100.00
53916;BME280;39827;49.652;18.770;2023-02-23T00:53:45;96408.91;;;0.71;100.00
53916;BME280;39827;49.652;18.770;2023-02-23T00:56:12;96415.13;;;0.70;100.00
53916;BME280;39827;49.652;18.770;2023-02-23T00:58:38;96409.53;;;0.67;100.00
53916;BME280;39827;49.652;18.770;2023-02-23T01:01:12;96411.34;;;0.73;100.00
53916;BME280;39827;49.652;18.770;2023-02-23T01:03:39;96394.06;;;0.58;100.00
53916;BME280;39827;49.652;18.770;2023-02-23T01:06:07;96402.28;;;0.62;100.00
53916;BME280;39827;49.652;18.770;2023-02-23T01:08:39;96395.81;;;0.51;100.00
53916;BME280;39827;49.652;18.770;2023-02-23T01:11:12;96394.03;;;0.51;100.00
53916;BME280;39827;49.652;18.770;2023-02-23T01:13:40;96398.00;;;0.41;100.00
53916;BME280;39827;49.652;18.770;2023-02-23T01:16:08;96384.13;;;0.33;100.00
53916;BME280;39827;49.652;18.770;2023-02-23T01:18:34;96396.63;;;0.45;100.00
53916;BME280;39827;49.652;18.770;2023-02-23T01:21:01;96390.78;;;0.43;100.00
53916;BME280;39827;49.652;18.770;2023-02-23T01:23:26;96391.84;;;0.62;100.00
53916;BME280;39827;49.652;18.770;2023-02-23T01:25:52;96388.06;;;0.64;100.00
53916;BME280;39827;49.652;18.770;2023-02-23T01:28:17;96390.06;;;0.62;100.00
53916;BME280;39827;49.652;18.770;2023-02-23T01:30:42;96382.44;;;0.61;100.00
53916;BME280;39827;49.652;18.770;2023-02-23T01:33:09;96382.84;;;0.64;100.00
53916;BME280;39827;49.652;18.770;2023-02-23T01:35:34;96379.47;;;0.71;100.00
53916;BME280;39827;49.652;18.770;2023-02-23T01:38:00;96382.84;;;0.64;100.00
53916;BME280;39827;49.652;18.770;2023-02-23T01:40:26;96373.97;;;0.52;100.00
53916;BME280;39827;49.652;18.770;2023-02-23T01:42:55;96379.63;;;0.62;100.00
53916;BME280;39827;49.652;18.770;2023-02-23T01:45:31;96375.66;;;0.67;100.00
53916;BME280;39827;49.652;18.770;2023-02-23T01:48:03;96364.19;;;0.54;100.00
53916;BME280;39827;49.652;18.770;2023-02-23T01:50:36;96376.03;;;0.70;100.00
53916;BME280;39827;49.652;18.770;2023-02-23T01:53:04;96372.25;;;0.73;100.00
53916;BME280;39827;49.652;18.770;2023-02-23T01:55:29;96381.63;;;0.67;100.00
53916;BME280;39827;49.652;18.770;2023-02-23T01:58:03;96369.38;;;0.47;99.18
53916;BME280;39827;49.652;18.770;2023-02-23T02:00:30;96361.56;;;0.47;99.32
53916;BME280;39827;49.652;18.770;2023-02-23T02:02:59;96365.56;;;0.50;100.00
53916;BME280;39827;49.652;18.770;2023-02-23T02:05:27;96353.72;;;0.34;100.00
53916;BME280;39827;49.652;18.770;2023-02-23T02:07:54;96362.66;;;0.18;100.00
53916;BME280;39827;49.652;18.770;2023-02-23T02:10:23;96357.69;;;0.30;100.00
53916;BME280;39827;49.652;18.770;2023-02-23T02:13:09;96355.84;;;0.23;100.00
53916;BME280;39827;49.652;18.770;2023-02-23T02:15:54;96358.69;;;0.29;100.00
53916;BME280;39827;49.652;18.770;2023-02-23T02:35:24;96356.91;;;0.43;100.00
53916;BME280;39827;49.652;18.770;2023-02-23T02:40:31;96351.13;;;0.41;100.00
53916;BME280;39827;49.652;18.770;2023-02-23T02:43:20;96347.84;;;0.25;100.00
53916;BME280;39827;49.652;18.770;2023-02-23T02:48:43;96349.25;;;0.28;100.00
53916;BME280;39827;49.652;18.770;2023-02-23T02:51:26;96341.56;;;0.06;100.00
53916;BME280;39827;49.652;18.770;2023-02-23T02:56:37;96344.78;;;0.08;100.00
53916;BME280;39827;49.652;18.770;2023-02-23T02:59:16;96350.66;;;0.23;100.00
53916;BME280;39827;49.652;18.770;2023-02-23T03:02:02;96337.78;;;0.15;100.00
53916;BME280;39827;49.652;18.770;2023-02-23T03:04:47;96340.03;;;0.25;100.00
53916;BME280;39827;49.652;18.770;2023-02-23T03:11:02;96341.03;;;0.17;100.00
53916;BME280;39827;49.652;18.770;2023-02-23T03:16:44;96349.00;;;0.09;100.00
53916;BME280;39827;49.652;18.770;2023-02-23T03:22:53;96338.03;;;0.20;100.00
53916;BME280;39827;49.652;18.770;2023-02-23T03:26:17;96342.44;;;0.20;100.00
53916;BME280;39827;49.652;18.770;2023-02-23T03:29:08;96340.84;;;0.25;100.00
53916;BME280;39827;49.652;18.770;2023-02-23T03:35:06;96339.41;;;0.16;100.00
53916;BME280;39827;49.652;18.770;2023-02-23T03:38:06;96339.47;;;0.30;100.00
53916;BME280;39827;49.652;18.770;2023-02-23T03:40:52;96335.44;;;0.20;100.00
53916;BME280;39827;49.652;18.770;2023-02-23T03:43:42;96328.44;;;0.28;100.00
53916;BME280;39827;49.652;18.770;2023-02-23T03:46:30;96329.22;;;0.21;100.00
53916;BME280;39827;49.652;18.770;2023-02-23T03:49:14;96338.19;;;0.05;100.00
53916;BME280;39827;49.652;18.770;2023-02-23T03:52:07;96325.81;;;0.21;100.00
53916;BME280;39827;49.652;18.770;2023-02-23T03:55:00;96340.00;;;0.18;100.00
53916;BME280;39827;49.652;18.770;2023-02-23T03:57:49;96330.50;;;-0.10;100.00
53916;BME280;39827;49.652;18.770;2023-02-23T04:00:41;96339.19;;;0.11;100.00
53916;BME280;39827;49.652;18.770;2023-02-23T04:03:26;96327.34;;;0.08;100.00
53916;BME280;39827;49.652;18.770;2023-02-23T04:06:16;96336.25;;;0.34;100.00
53916;BME280;39827;49.652;18.770;2023-02-23T04:09:04;96337.44;;;0.25;100.00
53916;BME280;39827;49.652;18.770;2023-02-23T04:11:56;96336.38;;;0.12;100.00
53916;BME280;39827;49.652;18.770;2023-02-23T04:15:34;96332.56;;;0.08;100.00
53916;BME280;39827;49.652;18.770;2023-02-23T04:17:34;96340.22;;;0.23;100.00
53916;BME280;39827;49.652;18.770;2023-02-23T04:19:59;96335.19;;;0.15;100.00
53916;BME280;39827;49.652;18.770;2023-02-23T04:22:25;96340.22;;;0.23;100.00
53916;BME280;39827;49.652;18.770;2023-02-23T04:24:50;96328.25;;;0.36;100.00
53916;BME280;39827;49.652;18.770;2023-02-23T04:27:16;96332.53;;;0.50;100.00
53916;BME280;39827;49.652;18.770;2023-02-23T04:29:42;96327.50;;;0.49;100.00
53916;BME280;39827;49.652;18.770;2023-02-23T04:32:12;96331.50;;;0.51;100.00
53916;BME280;39827;49.652;18.770;2023-02-23T04:34:37;96330.13;;;0.56;100.00
53916;BME280;39827;49.652;18.770;2023-02-23T04:37:03;96326.31;;;0.58;100.00
53916;BME280;39827;49.652;18.770;2023-02-23T04:39:28;96329.31;;;0.55;100.00
53916;BME280;39827;49.652;18.770;2023-02-23T04:41:53;96335.72;;;0.59;100.00
53916;BME280;39827;49.652;18.770;2023-02-23T04:44:19;96331.53;;;0.65;100.00
53916;BME280;39827;49.652;18.770;2023-02-23T04:46:44;96329.50;;;0.60;100.00
53916;BME280;39827;49.652;18.770;2023-02-23T04:49:10;96336.28;;;0.41;100.00
53916;BME280;39827;49.652;18.770;2023-02-23T04:51:35;96316.66;;;0.45;100.00
53916;BME280;39827;49.652;18.770;2023-02-23T04:54:02;96329.09;;;0.50;100.00
53916;BME280;39827;49.652;18.770;2023-02-23T04:56:28;96328.91;;;0.45;100.00
53916;BME280;39827;49.652;18.770;2023-02-23T04:58:53;96328.84;;;0.31;100.00
53916;BME280;39827;49.652;18.770;2023-02-23T05:01:19;96323.88;;;0.43;100.00
53916;BME280;39827;49.652;18.770;2023-02-23T05:03:49;96330.91;;;0.63;100.00
53916;BME280;39827;49.652;18.770;2023-02-23T05:06:16;96321.50;;;0.62;100.00
53916;BME280;39827;49.652;18.770;2023-02-23T05:08:42;96330.53;;;0.59;100.00
53916;BME280;39827;49.652;18.770;2023-02-23T05:11:07;96319.09;;;0.74;100.00
53916;BME280;39827;49.652;18.770;2023-02-23T05:13:33;96333.78;;;0.95;100.00
53916;BME280;39827;49.652;18.770;2023-02-23T05:15:59;96326.75;;;0.96;100.00
53916;BME280;39827;49.652;18.770;2023-02-23T05:18:24;96324.38;;;1.08;100.00
53916;BME280;39827;49.652;18.770;2023-02-23T05:20:51;96324.38;;;1.21;100.00
53916;BME280;39827;49.652;18.770;2023-02-23T05:23:17;96326.97;;;1.28;100.00
53916;BME280;39827;49.652;18.770;2023-02-23T05:25:42;96321.13;;;1.26;100.00
53916;BME280;39827;49.652;18.770;2023-02-23T05:28:08;96340.78;;;1.28;100.00
53916;BME280;39827;49.652;18.770;2023-02-23T05:30:33;96338.81;;;1.30;100.00
53916;BME280;39827;49.652;18.770;2023-02-23T05:33:00;96323.34;;;1.15;100.00
53916;BME280;39827;49.652;18.770;2023-02-23T05:35:26;96340.00;;;1.21;100.00
53916;BME280;39827;49.652;18.770;2023-02-23T05:37:51;96326.78;;;1.23;100.00
53916;BME280;39827;49.652;18.770;2023-02-23T05:40:17;96335.19;;;1.25;100.00
53916;BME280;39827;49.652;18.770;2023-02-23T05:42:43;96342.81;;;1.13;99.92
53916;BME280;39827;49.652;18.770;2023-02-23T05:45:09;96337.41;;;1.08;100.00
53916;BME280;39827;49.652;18.770;2023-02-23T05:47:34;96340.03;;;1.08;100.00
53916;BME280;39827;49.652;18.770;2023-02-23T05:50:04;96331.19;;;1.09;100.00
53916;BME280;39827;49.652;18.770;2023-02-23T05:52:31;96345.63;;;1.18;100.00
53916;BME280;39827;49.652;18.770;2023-02-23T05:54:56;96336.00;;;1.19;100.00
53916;BME280;39827;49.652;18.770;2023-02-23T05:57:22;96343.63;;;1.20;100.00
53916;BME280;39827;49.652;18.770;2023-02-23T05:59:48;96344.41;;;1.41;100.00
53916;BME280;39827;49.652;18.770;2023-02-23T06:02:13;96352.84;;;1.50;100.00
53916;BME280;39827;49.652;18.770;2023-02-23T06:04:39;96343.63;;;1.47;100.00
53916;BME280;39827;49.652;18.770;2023-02-23T06:07:06;96349.81;;;1.60;100.00
53916;BME280;39827;49.652;18.770;2023-02-23T06:09:32;96352.03;;;1.49;100.00
53916;BME280;39827;49.652;18.770;2023-02-23T06:11:57;96343.78;;;1.59;99.67
53916;BME280;39827;49.652;18.770;2023-02-23T06:14:25;96347.22;;;1.60;99.44
53916;BME280;39827;49.652;18.770;2023-02-23T06:16:50;96350.00;;;1.72;100.00
53916;BME280;39827;49.652;18.770;2023-02-23T06:19:15;96349.13;;;1.91;100.00
53916;BME280;39827;49.652;18.770;2023-02-23T06:21:41;96348.75;;;1.88;100.00
53916;BME280;39827;49.652;18.770;2023-02-23T06:24:06;96347.91;;;2.01;99.60
53916;BME280;39827;49.652;18.770;2023-02-23T06:26:32;96356.28;;;2.16;99.63
53916;BME280;39827;49.652;18.770;2023-02-23T06:28:58;96354.66;;;2.29;98.60
53916;BME280;39827;49.652;18.770;2023-02-23T06:31:23;96352.19;;;2.41;97.62
53916;BME280;39827;49.652;18.770;2023-02-23T06:33:49;96338.81;;;2.17;98.75
53916;BME280;39827;49.652;18.770;2023-02-23T06:36:15;96359.72;;;2.63;98.20
53916;BME280;39827;49.652;18.770;2023-02-23T06:38:40;96361.09;;;2.65;98.11
53916;BME280;39827;49.652;18.770;2023-02-23T06:41:08;96361.41;;;2.82;97.32
53916;BME280;39827;49.652;18.770;2023-02-23T06:43:33;96361.91;;;2.98;96.96
53916;BME280;39827;49.652;18.770;2023-02-23T06:45:58;96362.47;;;3.07;96.25
53916;BME280;39827;49.652;18.770;2023-02-23T06:48:24;96361.88;;;3.05;96.26
53916;BME280;39827;49.652;18.770;2023-02-23T06:50:49;96366.78;;;2.94;95.78
53916;BME280;39827;49.652;18.770;2023-02-23T06:53:15;96382.59;;;3.06;96.61
53916;BME280;39827;49.652;18.770;2023-02-23T06:55:40;96362.63;;;3.12;95.74
53916;BME280;39827;49.652;18.770;2023-02-23T06:58:05;96366.94;;;2.99;96.66
53916;BME280;39827;49.652;18.770;2023-02-23T07:00:32;96371.50;;;3.11;96.86
53916;BME280;39827;49.652;18.770;2023-02-23T07:02:57;96369.47;;;3.13;97.22
53916;BME280;39827;49.652;18.770;2023-02-23T07:05:24;96366.94;;;3.32;96.47
53916;BME280;39827;49.652;18.770;2023-02-23T07:07:49;96368.63;;;3.45;96.49
53916;BME280;39827;49.652;18.770;2023-02-23T07:10:16;96369.00;;;3.23;94.85
53916;BME280;39827;49.652;18.770;2023-02-23T07:12:42;96367.50;;;3.34;94.00
53916;BME280;39827;49.652;18.770;2023-02-23T07:15:08;96370.53;;;3.31;94.88
53916;BME280;39827;49.652;18.770;2023-02-23T07:17:34;96371.88;;;3.65;94.10
53916;BME280;39827;49.652;18.770;2023-02-23T07:20:00;96373.03;;;3.70;93.50
53916;BME280;39827;49.652;18.770;2023-02-23T07:22:25;96369.81;;;3.68;93.50
53916;BME280;39827;49.652;18.770;2023-02-23T07:24:54;96373.03;;;3.70;93.18
53916;BME280;39827;49.652;18.770;2023-02-23T07:27:20;96365.47;;;3.80;92.99
53916;BME280;39827;49.652;18.770;2023-02-23T07:29:45;96364.19;;;3.89;93.89
53916;BME280;39827;49.652;18.770;2023-02-23T07:32:10;96373.06;;;4.07;92.77
53916;BME280;39827;49.652;18.770;2023-02-23T07:34:36;96371.16;;;4.33;92.24
53916;BME280;39827;49.652;18.770;2023-02-23T07:37:01;96363.44;;;4.38;92.66
53916;BME280;39827;49.652;18.770;2023-02-23T07:39:27;96363.72;;;4.49;92.98
53916;BME280;39827;49.652;18.770;2023-02-23T07:41:52;96371.97;;;4.83;91.86
53916;BME280;39827;49.652;18.770;2023-02-23T07:44:18;96375.69;;;5.18;89.64
53916;BME280;39827;49.652;18.770;2023-02-23T07:46:43;96367.66;;;5.43;87.50
53916;BME280;39827;49.652;18.770;2023-02-23T07:49:10;96366.28;;;5.53;86.70
53916;BME280;39827;49.652;18.770;2023-02-23T07:51:37;96360.09;;;5.83;84.46
53916;BME280;39827;49.652;18.770;2023-02-23T07:54:03;96356.44;;;6.08;82.33
53916;BME280;39827;49.652;18.770;2023-02-23T07:56:29;96365.50;;;6.41;81.25
53916;BME280;39827;49.652;18.770;2023-02-23T07:58:54;96355.84;;;6.59;80.34
53916;BME280;39827;49.652;18.770;2023-02-23T08:01:19;96368.03;;;6.94;79.05
53916;BME280;39827;49.652;18.770;2023-02-23T08:03:45;96357.69;;;7.04;78.77
53916;BME280;39827;49.652;18.770;2023-02-23T08:06:14;96361.78;;;7.29;77.98
53916;BME280;39827;49.652;18.770;2023-02-23T08:08:40;96355.56;;;7.36;76.15
53916;BME280;39827;49.652;18.770;2023-02-23T08:11:06;96359.78;;;7.37;77.04
53916;BME280;39827;49.652;18.770;2023-02-23T08:13:31;96361.47;;;7.60;76.92
53916;BME280;39827;49.652;18.770;2023-02-23T08:15:57;96370.44;;;7.99;75.40
53916;BME280;39827;49.652;18.770;2023-02-23T08:18:23;96366.84;;;8.27;73.35
53916;BME280;39827;49.652;18.770;2023-02-23T08:20:48;96365.38;;;8.37;72.17
53916;BME280;39827;49.652;18.770;2023-02-23T08:23:14;96371.06;;;8.73;70.83
53916;BME280;39827;49.652;18.770;2023-02-23T08:25:41;96372.56;;;8.91;67.63
53916;BME280;39827;49.652;18.770;2023-02-23T08:28:06;96365.56;;;9.35;66.28
53916;BME280;39827;49.652;18.770;2023-02-23T08:30:32;96369.06;;;9.84;65.09
53916;BME280;39827;49.652;18.770;2023-02-23T08:32:58;96363.56;;;10.49;64.42
53916;BME280;39827;49.652;18.770;2023-02-23T08:35:26;96363.91;;;10.84;59.43
53916;BME280;39827;49.652;18.770;2023-02-23T08:37:51;96358.34;;;10.75;58.27
53916;BME280;39827;49.652;18.770;2023-02-23T08:40:17;96359.09;;;10.60;58.86
53916;BME280;39827;49.652;18.770;2023-02-23T08:42:45;96357.09;;;11.19;58.13
53916;BME280;39827;49.652;18.770;2023-02-23T08:45:11;96368.75;;;11.08;56.32
53916;BME280;39827;49.652;18.770;2023-02-23T08:47:36;96360.00;;;11.18;57.90
53916;BME280;39827;49.652;18.770;2023-02-23T08:50:03;96367.69;;;11.14;57.32
53916;BME280;39827;49.652;18.770;2023-02-23T08:52:29;96372.72;;;11.00;56.41
53916;BME280;39827;49.652;18.770;2023-02-23T08:54:54;96358.41;;;11.32;56.20
53916;BME280;39827;49.652;18.770;2023-02-23T08:57:20;96376.69;;;11.81;54.67
53916;BME280;39827;49.652;18.770;2023-02-23T08:59:45;96362.59;;;11.91;54.46
53916;BME280;39827;49.652;18.770;2023-02-23T09:02:12;96358.88;;;11.97;54.25
53916;BME280;39827;49.652;18.770;2023-02-23T09:04:38;96377.16;;;12.14;53.50
53916;BME280;39827;49.652;18.770;2023-02-23T09:07:07;96355.16;;;12.69;52.49
53916;BME280;39827;49.652;18.770;2023-02-23T09:09:33;96363.00;;;12.45;52.63
53916;BME280;39827;49.652;18.770;2023-02-23T09:11:59;96353.25;;;12.24;52.64
53916;BME280;39827;49.652;18.770;2023-02-23T09:14:25;96357.00;;;12.79;52.61
53916;BME280;39827;49.652;18.770;2023-02-23T09:16:50;96363.66;;;12.71;51.66
53916;BME280;39827;49.652;18.770;2023-02-23T09:19:16;96361.69;;;12.32;51.71
53916;BME280;39827;49.652;18.770;2023-02-23T09:21:42;96359.38;;;11.99;53.02
53916;BME280;39827;49.652;18.770;2023-02-23T09:24:08;96361.47;;;12.84;52.67
53916;BME280;39827;49.652;18.770;2023-02-23T09:26:33;96373.47;;;12.10;52.91
53916;BME280;39827;49.652;18.770;2023-02-23T09:29:04;96360.53;;;12.64;52.28
53916;BME280;39827;49.652;18.770;2023-02-23T09:31:29;96364.69;;;12.04;53.70
53916;BME280;39827;49.652;18.770;2023-02-23T09:33:55;96364.69;;;12.04;54.21
53916;BME280;39827;49.652;18.770;2023-02-23T09:36:22;96364.72;;;11.89;54.55
53916;BME280;39827;49.652;18.770;2023-02-23T09:38:50;96356.56;;;11.49;55.67
53916;BME280;39827;49.652;18.770;2023-02-23T09:49:02;96367.56;;;12.23;54.44
53916;BME280;39827;49.652;18.770;2023-02-23T09:51:33;96367.34;;;12.04;54.40
53916;BME280;39827;49.652;18.770;2023-02-23T09:54:02;96362.84;;;12.76;53.40
53916;BME280;39827;49.652;18.770;2023-02-23T09:56:47;96375.44;;;13.00;51.88
53916;BME280;39827;49.652;18.770;2023-02-23T09:59:19;96358.13;;;12.62;52.75
53916;BME280;39827;49.652;18.770;2023-02-23T10:02:23;96394.22;;;12.69;53.68
53916;BME280;39827;49.652;18.770;2023-02-23T10:05:07;96377.41;;;12.84;52.98
53916;BME280;39827;49.652;18.770;2023-02-23T10:07:51;96376.34;;;13.25;51.84
53916;BME280;39827;49.652;18.770;2023-02-23T10:10:44;96367.19;;;13.01;52.85
53916;BME280;39827;49.652;18.770;2023-02-23T10:16:01;96378.63;;;14.01;49.96
53916;BME280;39827;49.652;18.770;2023-02-23T10:18:44;96370.34;;;13.78;49.90
53916;BME280;39827;49.652;18.770;2023-02-23T10:24:00;96363.47;;;14.26;49.01
53916;BME280;39827;49.652;18.770;2023-02-23T10:26:36;96373.88;;;14.91;47.56
53916;BME280;39827;49.652;18.770;2023-02-23T10:29:21;96365.75;;;14.57;47.89
53916;BME280;39827;49.652;18.770;2023-02-23T10:31:48;96367.78;;;14.66;48.81
53916;BME280;39827;49.652;18.770;2023-02-23T10:34:16;96369.19;;;14.39;49.03
53916;BME280;39827;49.652;18.770;2023-02-23T10:36:50;96359.59;;;14.62;48.69
53916;BME280;39827;49.652;18.770;2023-02-23T10:39:17;96350.28;;;15.17;47.15
53916;BME280;39827;49.652;18.770;2023-02-23T10:41:43;96341.72;;;14.63;47.64
53916;BME280;39827;49.652;18.770;2023-02-23T10:44:21;96350.13;;;14.51;48.69
53916;BME280;39827;49.652;18.770;2023-02-23T10:46:52;96357.81;;;14.77;47.54
53916;BME280;39827;49.652;18.770;2023-02-23T10:49:20;96336.09;;;14.20;48.81
53916;BME280;39827;49.652;18.770;2023-02-23T10:51:47;96350.50;;;14.19;49.09
53916;BME280;39827;49.652;18.770;2023-02-23T10:54:44;96351.97;;;14.06;49.48
53916;BME280;39827;49.652;18.770;2023-02-23T10:57:18;96332.69;;;14.15;49.40
53916;BME280;39827;49.652;18.770;2023-02-23T11:02:41;96343.44;;;13.55;50.62
53916;BME280;39827;49.652;18.770;2023-02-23T11:10:57;96342.97;;;13.48;51.73
53916;BME280;39827;49.652;18.770;2023-02-23T11:13:25;96334.00;;;12.99;52.52
53916;BME280;39827;49.652;18.770;2023-02-23T11:16:05;96344.44;;;12.40;54.35
53916;BME280;39827;49.652;18.770;2023-02-23T11:18:31;96333.81;;;12.34;55.17
53916;BME280;39827;49.652;18.770;2023-02-23T11:20:57;96337.56;;;12.28;55.03
53916;BME280;39827;49.652;18.770;2023-02-23T11:23:50;96323.81;;;12.00;55.84
53916;BME280;39827;49.652;18.770;2023-02-23T11:26:26;96300.34;;;11.57;57.50
53916;BME280;39827;49.652;18.770;2023-02-23T11:28:56;96317.00;;;11.73;57.20
53916;BME280;39827;49.652;18.770;2023-02-23T11:31:29;96309.81;;;11.94;57.05
53916;BME280;39827;49.652;18.770;2023-02-23T11:33:56;96308.94;;;12.04;57.01
53916;BME280;39827;49.652;18.770;2023-02-23T11:39:02;96316.72;;;11.90;57.55
53916;BME280;39827;49.652;18.770;2023-02-23T11:41:28;96304.31;;;11.70;58.57
53916;BME280;39827;49.652;18.770;2023-02-23T11:43:58;96302.31;;;12.17;57.28
53916;BME280;39827;49.652;18.770;2023-02-23T11:46:25;96304.44;;;12.15;57.06
53916;BME280;39827;49.652;18.770;2023-02-23T11:48:52;96311.09;;;12.68;56.92
53916;BME280;39827;49.652;18.770;2023-02-23T11:51:25;96301.97;;;12.80;55.53
53916;BME280;39827;49.652;18.770;2023-02-23T11:53:53;96295.97;;;12.63;55.01
53916;BME280;39827;49.652;18.770;2023-02-23T11:56:20;96300.13;;;12.30;56.27
53916;BME280;39827;49.652;18.770;2023-02-23T11:58:48;96305.53;;;12.09;57.23
53916;BME280;39827;49.652;18.770;2023-02-23T12:01:17;96299.56;;;12.33;57.08
53916;BME280;39827;49.652;18.770;2023-02-23T12:03:54;96294.09;;;12.69;56.45
53916;BME280;39827;49.652;18.770;2023-02-23T12:06:33;96288.38;;;12.41;56.89
53916;BME280;39827;49.652;18.770;2023-02-23T12:11:36;96270.72;;;12.16;58.17
53916;BME280;39827;49.652;18.770;2023-02-23T12:14:14;96286.88;;;12.30;57.49
53916;BME280;39827;49.652;18.770;2023-02-23T12:16:48;96284.31;;;11.98;58.23
53916;BME280;39827;49.652;18.770;2023-02-23T12:19:31;96282.97;;;12.01;59.00
53916;BME280;39827;49.652;18.770;2023-02-23T12:22:03;96290.38;;;12.04;59.00
53916;BME280;39827;49.652;18.770;2023-02-23T12:24:39;96298.91;;;11.91;59.27
53916;BME280;39827;49.652;18.770;2023-02-23T12:27:13;96284.97;;;11.59;59.76
53916;BME280;39827;49.652;18.770;2023-02-23T12:33:04;96272.19;;;11.71;60.21
53916;BME280;39827;49.652;18.770;2023-02-23T12:35:45;96271.97;;;11.63;60.38
53916;BME280;39827;49.652;18.770;2023-02-23T12:38:21;96274.66;;;11.31;60.74
53916;BME280;39827;49.652;18.770;2023-02-23T12:40:54;96266.19;;;11.24;61.07
53916;BME280;39827;49.652;18.770;2023-02-23T12:43:36;96262.66;;;11.65;61.18
53916;BME280;39827;49.652;18.770;2023-02-23T12:46:08;96263.44;;;11.71;60.19
53916;BME280;39827;49.652;18.770;2023-02-23T12:48:59;96249.47;;;11.34;60.90
53916;BME280;39827;49.652;18.770;2023-02-23T12:51:48;96263.94;;;11.83;60.53
53916;BME280;39827;49.652;18.770;2023-02-23T12:54:16;96233.16;;;11.82;59.71
53916;BME280;39827;49.652;18.770;2023-02-23T12:57:16;96250.19;;;11.71;60.43
53916;BME280;39827;49.652;18.770;2023-02-23T13:12:57;96229.13;;;11.14;62.73
53916;BME280;39827;49.652;18.770;2023-02-23T13:18:20;96227.25;;;11.25;62.71
53916;BME280;39827;49.652;18.770;2023-02-23T13:24:11;96245.47;;;11.42;62.02
53916;BME280;39827;49.652;18.770;2023-02-23T13:26:54;96227.56;;;11.94;60.72
53916;BME280;39827;49.652;18.770;2023-02-23T13:31:53;96203.31;;;11.56;61.66
53916;BME280;39827;49.652;18.770;2023-02-23T13:34:52;96207.31;;;11.38;62.40
53916;BME280;39827;49.652;18.770;2023-02-23T13:37:31;96218.72;;;11.43;61.41
53916;BME280;39827;49.652;18.770;2023-02-23T13:56:24;96202.06;;;11.27;62.09
53916;BME280;39827;49.652;18.770;2023-02-23T13:58:54;96201.59;;;10.78;63.60
53916;BME280;39827;49.652;18.770;2023-02-23T14:01:29;96205.81;;;10.79;63.78
53916;BME280;39827;49.652;18.770;2023-02-23T14:03:58;96206.88;;;10.84;64.00
53916;BME280;39827;49.652;18.770;2023-02-23T14:06:27;96184.38;;;10.71;64.05
53916;BME280;39827;49.652;18.770;2023-02-23T14:08:59;96191.53;;;10.70;64.30
53916;BME280;39827;49.652;18.770;2023-02-23T14:14:12;96202.13;;;10.75;64.43
53916;BME280;39827;49.652;18.770;2023-02-23T14:16:38;96195.44;;;10.36;65.60
53916;BME280;39827;49.652;18.770;2023-02-23T14:19:08;96201.03;;;10.50;65.45
53916;BME280;39827;49.652;18.770;2023-02-23T14:21:45;96194.09;;;10.34;65.54
53916;BME280;39827;49.652;18.770;2023-02-23T14:24:23;96194.97;;;10.60;64.85
53916;BME280;39827;49.652;18.770;2023-02-23T14:27:18;96210.84;;;10.60;64.54
53916;BME280;39827;49.652;18.770;2023-02-23T14:32:47;96189.66;;;10.71;65.27
53916;BME280;39827;49.652;18.770;2023-02-23T14:38:02;96194.91;;;10.39;65.68
53916;BME280;39827;49.652;18.770;2023-02-23T14:40:32;96184.59;;;10.27;66.54
53916;BME280;39827;49.652;18.770;2023-02-23T14:43:01;96184.84;;;10.26;66.56
53916;BME280;39827;49.652;18.770;2023-02-23T14:45:32;96170.28;;;10.34;66.41
53916;BME280;39827;49.652;18.770;2023-02-23T14:48:04;96171.09;;;10.24;66.52
53916;BME280;39827;49.652;18.770;2023-02-23T14:50:33;96169.00;;;10.41;66.43
53916;BME280;39827;49.652;18.770;2023-02-23T14:53:00;96173.19;;;10.32;67.25
53916;BME280;39827;49.652;18.770;2023-02-23T14:55:33;96164.44;;;10.06;67.49
53916;BME280;39827;49.652;18.770;2023-02-23T14:58:03;96165.78;;;10.13;67.62
53916;BME280;39827;49.652;18.770;2023-02-23T15:00:43;96163.69;;;10.15;68.02
53916;BME280;39827;49.652;18.770;2023-02-23T15:03:10;96167.34;;;10.09;68.01
53916;BME280;39827;49.652;18.770;2023-02-23T15:05:41;96162.88;;;10.04;68.56
53916;BME280;39827;49.652;18.770;2023-02-23T15:08:08;96156.25;;;10.02;68.68